Time;durP1;ratioP1;P1;durP2;ratioP2;P2;SDS_P1;SDS_P2;PMS_P1;PMS_P2;Temp;Humidity;BMP_temperature;BMP_pressure;BME280_temperature;BME280_humidity;BME280_pressure;Samples;Min_cycle;Max_cycle;Signal;HPM_P1;HPM_P2
2024/02/21 00:02:33;;;;;;;23.53;15.90;;;;;;;9.10;100.00;101808.13;6147098;28;20526;-67
2024/02/21 00:05:54;;;;;;;28.73;13.97;;;;;;;9.04;100.00;101804.03;6142886;28;20239;-67
2024/02/21 00:09:15;;;;;;;21.13;13.50;;;;;;;9.05;100.00;101800.41;6146455;28;20325;-68
2024/02/21 00:12:35;;;;;;;17.87;13.20;;;;;;;8.96;100.00;101803.69;6147367;28;20617;-67
2024/02/21 00:15:56;;;;;;;19.07;13.30;;;;;;;8.95;100.00;101810.03;6146791;28;20565;-68
2024/02/21 00:19:19;;;;;;;23.33;13.97;;;;;;;8.95;100.00;101799.28;6148727;28;20583;-67
2024/02/21 00:22:40;;;;;;;25.27;16.17;;;;;;;8.97;100.00;101791.13;6143030;28;20948;-67
2024/02/21 00:26:01;;;;;;;16.43;12.27;;;;;;;8.92;100.00;101785.19;6152623;28;20236;-67
2024/02/21 00:29:24;;;;;;;22.43;14.57;;;;;;;8.92;100.00;101783.38;6154189;28;20310;-67
2024/02/21 00:32:45;;;;;;;15.70;13.57;;;;;;;8.93;100.00;101789.63;6148049;28;20620;-67
2024/02/21 00:36:08;;;;;;;24.40;16.60;;;;;;;8.92;100.00;101758.28;6144568;28;20219;-67
2024/02/21 00:39:29;;;;;;;17.10;14.67;;;;;;;8.92;100.00;101758.28;6148987;28;20239;-67
2024/02/21 00:42:50;;;;;;;20.93;15.10;;;;;;;8.91;100.00;101752.03;6149526;28;20231;-67
2024/02/21 00:46:11;;;;;;;21.27;12.93;;;;;;;8.92;100.00;101751.09;6145990;28;20641;-67
2024/02/21 00:49:31;;;;;;;22.07;16.53;;;;;;;8.94;100.00;101754.53;6146658;28;20299;-67
2024/02/21 00:52:54;;;;;;;21.50;15.73;;;;;;;8.94;100.00;101745.59;6149821;28;20266;-67
2024/02/21 00:56:15;;;;;;;24.53;17.57;;;;;;;8.97;100.00;101757.00;6134407;28;20238;-67
2024/02/21 00:59:36;;;;;;;21.13;16.83;;;;;;;8.99;100.00;101743.47;6151558;28;20235;-67
2024/02/21 01:02:56;;;;;;;18.77;14.83;;;;;;;8.97;100.00;101745.41;6145397;28;20234;-67
2024/02/21 01:06:17;;;;;;;21.23;17.30;;;;;;;8.99;100.00;101735.41;6135079;28;20231;-66
2024/02/21 01:09:39;;;;;;;30.30;18.17;;;;;;;9.01;100.00;101741.53;6155003;28;20688;-67
2024/02/21 01:13:01;;;;;;;35.70;19.63;;;;;;;8.99;100.00;101733.56;6140289;28;20239;-67
2024/02/21 01:16:22;;;;;;;18.97;15.73;;;;;;;9.01;100.00;101712.81;6139144;28;20514;-67
2024/02/21 01:19:43;;;;;;;19.97;16.50;;;;;;;9.01;100.00;101714.66;6141199;28;20231;-66
2024/02/21 01:23:04;;;;;;;19.73;15.57;;;;;;;9.01;100.00;101726.25;6143225;28;20326;-66
2024/02/21 01:26:26;;;;;;;19.37;17.13;;;;;;;8.99;100.00;101708.53;6143477;28;20246;-67
2024/02/21 01:29:49;;;;;;;19.83;17.60;;;;;;;8.99;100.00;101712.03;6152120;28;20242;-67
2024/02/21 01:33:10;;;;;;;31.47;17.10;;;;;;;9.00;100.00;101702.16;6144163;28;20222;-66
2024/02/21 01:36:31;;;;;;;29.97;16.83;;;;;;;9.00;100.00;101702.16;6143388;28;20252;-67
2024/02/21 01:39:52;;;;;;;21.97;16.13;;;;;;;8.98;100.00;101696.91;6150130;28;20235;-67
2024/02/21 01:43:18;;;;;;;18.50;15.60;;;;;;;8.97;100.00;101689.78;6144718;28;20688;-67
2024/02/21 01:46:39;;;;;;;20.67;15.93;;;;;;;8.88;100.00;101679.69;6149168;28;21740;-66
2024/02/21 02:00:01;;;;;;;20.80;15.60;;;;;;;8.65;100.00;101669.63;6153498;28;20608;-67
2024/02/21 02:03:25;;;;;;;26.67;21.10;;;;;;;8.60;100.00;101659.19;6138790;28;20254;-67
2024/02/21 02:06:46;;;;;;;22.47;20.03;;;;;;;8.61;100.00;101650.19;6135938;28;20230;-67
2024/02/21 02:10:09;;;;;;;24.03;18.00;;;;;;;8.54;100.00;101646.19;6145157;28;20604;-67
2024/02/21 02:13:30;;;;;;;25.43;18.37;;;;;;;8.57;100.00;101616.38;6150096;28;20230;-67
2024/02/21 02:16:51;;;;;;;27.77;19.47;;;;;;;8.58;100.00;101617.25;6145555;28;20341;-68
2024/02/21 02:20:14;;;;;;;35.37;21.23;;;;;;;8.55;100.00;101604.88;6140249;28;20756;-67
2024/02/21 02:23:37;;;;;;;21.87;17.93;;;;;;;8.57;100.00;101581.44;6143859;28;20719;-68
2024/02/21 02:26:58;;;;;;;25.33;21.47;;;;;;;8.59;100.00;101565.25;6142332;28;20246;-67
2024/02/21 02:30:19;;;;;;;23.00;18.80;;;;;;;8.57;100.00;101538.47;6142515;28;20238;-66
2024/02/21 02:33:40;;;;;;;25.20;19.97;;;;;;;8.55;100.00;101526.97;6141157;28;21855;-68
2024/02/21 02:37:01;;;;;;;22.47;19.20;;;;;;;8.56;100.00;101491.06;6116110;28;20325;-67
2024/02/21 02:40:23;;;;;;;21.13;18.40;;;;;;;8.56;100.00;101500.97;6148901;28;20522;-68
2024/02/21 02:43:44;;;;;;;29.23;21.17;;;;;;;8.63;100.00;101487.00;6129554;28;20628;-66
2024/02/21 02:47:05;;;;;;;23.43;18.57;;;;;;;8.64;100.00;101488.69;6125710;28;21333;-67
2024/02/21 02:50:27;;;;;;;25.93;19.13;;;;;;;8.71;100.00;101506.13;6144563;28;20243;-67
2024/02/21 02:53:48;;;;;;;31.97;20.07;;;;;;;8.75;100.00;101506.75;6153069;28;20284;-67
2024/02/21 02:57:10;;;;;;;27.63;21.43;;;;;;;8.76;100.00;101517.38;6153376;28;20549;-66
2024/02/21 03:00:35;;;;;;;25.60;19.37;;;;;;;8.82;100.00;101516.13;6147562;28;20587;-67
2024/02/21 03:03:56;;;;;;;27.23;17.23;;;;;;;8.85;100.00;101527.50;6156117;28;20238;-68
2024/02/21 03:07:17;;;;;;;25.67;18.73;;;;;;;8.90;100.00;101547.81;6128981;28;20243;-66
2024/02/21 03:10:38;;;;;;;23.47;20.93;;;;;;;8.94;100.00;101546.63;6146229;28;20872;-67
2024/02/21 03:14:00;;;;;;;24.67;19.20;;;;;;;8.97;100.00;101555.31;6154131;28;20227;-68
2024/02/21 03:17:21;;;;;;;24.50;19.13;;;;;;;8.97;100.00;101559.88;6149306;28;20239;-67
2024/02/21 03:20:42;;;;;;;23.90;20.63;;;;;;;9.00;100.00;101554.25;6136285;28;20599;-67
2024/02/21 03:24:02;;;;;;;26.33;20.87;;;;;;;9.04;100.00;101542.31;6155363;28;20605;-66
2024/02/21 03:27:23;;;;;;;23.37;19.80;;;;;;;9.06;100.00;101540.38;6147541;28;20583;-67
2024/02/21 03:30:45;;;;;;;24.97;19.10;;;;;;;9.08;100.00;101547.34;6121118;28;20226;-67
2024/02/21 03:34:06;;;;;;;22.77;14.87;;;;;;;9.13;100.00;101555.09;6148498;28;20319;-67
2024/02/21 03:37:27;;;;;;;27.13;19.67;;;;;;;9.16;100.00;101544.09;6145548;28;20235;-67
2024/02/21 03:40:48;;;;;;;23.67;18.03;;;;;;;9.15;100.00;101559.41;6149650;28;20234;-67
2024/02/21 03:44:09;;;;;;;24.07;18.07;;;;;;;9.16;100.00;101555.72;6150980;28;20235;-67
2024/02/21 03:47:31;;;;;;;21.90;17.87;;;;;;;9.17;100.00;101540.47;6150911;28;23662;-67
2024/02/21 03:50:55;;;;;;;25.87;19.40;;;;;;;9.13;100.00;101549.72;6146015;28;20230;-68
2024/02/21 03:54:15;;;;;;;25.43;16.70;;;;;;;9.11;100.00;101554.34;6149207;28;20218;-67
2024/02/21 03:57:36;;;;;;;21.77;17.60;;;;;;;9.09;100.00;101541.03;6149820;28;20231;-67
2024/02/21 04:00:57;;;;;;;24.77;19.57;;;;;;;9.05;100.00;101542.22;6142099;28;20549;-67
2024/02/21 04:04:19;;;;;;;23.60;18.33;;;;;;;8.98;100.00;101530.16;6149346;28;20227;-67
2024/02/21 04:07:40;;;;;;;29.57;19.53;;;;;;;8.90;100.00;101532.56;6150528;28;20333;-68
2024/02/21 04:11:01;;;;;;;29.40;19.97;;;;;;;8.87;100.00;101538.13;6145915;28;20227;-68
2024/02/21 04:14:22;;;;;;;25.53;19.80;;;;;;;8.81;100.00;101527.81;6138619;28;20788;-67
2024/02/21 04:17:44;;;;;;;28.20;20.43;;;;;;;8.81;100.00;101531.38;6146304;28;20238;-68
2024/02/21 04:21:07;;;;;;;25.80;19.73;;;;;;;8.81;100.00;101517.06;6145028;28;21586;-67
2024/02/21 04:24:27;;;;;;;20.57;17.97;;;;;;;8.80;100.00;101524.25;6145651;28;20322;-67
2024/02/21 04:27:48;;;;;;;27.60;19.87;;;;;;;8.80;100.00;101516.19;6145228;28;20237;-68
2024/02/21 04:31:09;;;;;;;23.47;18.97;;;;;;;8.80;100.00;101512.69;6144151;28;20231;-68
2024/02/21 04:34:33;;;;;;;37.83;18.63;;;;;;;8.78;100.00;101510.06;6147965;28;20254;-67
2024/02/21 04:37:55;;;;;;;20.20;16.47;;;;;;;8.76;100.00;101527.31;6147096;28;20226;-67
2024/02/21 04:41:16;;;;;;;22.17;17.53;;;;;;;8.79;100.00;101509.13;6137297;28;20235;-67
2024/02/21 04:44:39;;;;;;;19.40;16.53;;;;;;;8.71;100.00;101516.88;6145924;28;20230;-66
2024/02/21 04:48:00;;;;;;;17.23;15.53;;;;;;;8.68;100.00;101505.47;6142219;28;20235;-68
2024/02/21 04:51:20;;;;;;;16.63;13.80;;;;;;;8.67;100.00;101512.69;6136391;28;20243;-68
2024/02/21 04:54:43;;;;;;;20.80;17.03;;;;;;;8.63;100.00;101497.75;6147618;28;20231;-68
2024/02/21 04:58:04;;;;;;;21.17;16.37;;;;;;;8.62;100.00;101505.91;6148516;28;20573;-68
2024/02/21 05:01:25;;;;;;;19.80;15.53;;;;;;;8.59;100.00;101507.00;6145537;28;21077;-68
2024/02/21 05:04:46;;;;;;;16.87;15.17;;;;;;;8.61;100.00;101505.06;6150396;28;20243;-68
2024/02/21 05:08:07;;;;;;;16.70;13.07;;;;;;;8.57;100.00;101497.31;6145415;28;20500;-68
2024/02/21 05:11:29;;;;;;;18.90;16.50;;;;;;;8.56;100.00;101503.66;6143980;28;20247;-68
2024/02/21 05:14:50;;;;;;;19.90;16.03;;;;;;;8.57;100.00;101498.16;6146716;28;21642;-67
2024/02/21 05:18:11;;;;;;;15.87;13.47;;;;;;;8.53;100.00;101491.28;6148840;28;20235;-68
2024/02/21 05:21:32;;;;;;;15.80;12.80;;;;;;;8.50;100.00;101482.59;6145760;28;20238;-67
2024/02/21 05:24:53;;;;;;;16.83;13.33;;;;;;;8.52;100.00;101486.03;6137695;28;20301;-67
2024/02/21 05:28:16;;;;;;;13.47;12.07;;;;;;;8.51;100.00;101487.84;6147510;28;20310;-68
2024/02/21 05:31:56;;;;;;;15.07;13.47;;;;;;;8.52;100.00;101496.78;6140895;28;20329;-68
2024/02/21 05:35:17;;;;;;;10.30;9.43;;;;;;;8.53;100.00;101471.63;6145720;28;20506;-67
2024/02/21 05:38:38;;;;;;;14.63;11.70;;;;;;;8.51;100.00;101482.47;6151981;28;20231;-67
2024/02/21 05:41:59;;;;;;;10.77;8.53;;;;;;;8.51;100.00;101481.63;6148864;28;20245;-67
2024/02/21 05:45:21;;;;;;;13.97;10.87;;;;;;;8.52;100.00;101484.19;6151630;28;20226;-67
2024/02/21 05:48:42;;;;;;;13.87;10.87;;;;;;;8.51;100.00;101481.63;6149569;28;20258;-68
2024/02/21 05:52:04;;;;;;;11.57;10.50;;;;;;;8.52;100.00;101488.72;6126267;28;20235;-67
2024/02/21 05:55:25;;;;;;;10.73;9.67;;;;;;;8.51;100.00;101481.63;6144360;28;20235;-67
2024/02/21 05:58:46;;;;;;;10.50;9.33;;;;;;;8.49;100.00;101480.88;6147993;28;20238;-67
2024/02/21 06:02:08;;;;;;;10.00;9.07;;;;;;;8.49;100.00;101478.19;6146060;28;20234;-67
2024/02/21 06:05:30;;;;;;;9.57;8.67;;;;;;;8.49;100.00;101478.19;6131272;28;20230;-67
2024/02/21 06:08:51;;;;;;;11.20;9.83;;;;;;;8.51;100.00;101478.94;6146398;28;20262;-67
2024/02/21 06:12:12;;;;;;;13.03;8.80;;;;;;;8.51;100.00;101489.69;6144247;28;20231;-68
2024/02/21 06:15:33;;;;;;;8.33;7.50;;;;;;;8.56;100.00;101484.84;6147013;28;20845;-68
2024/02/21 06:18:55;;;;;;;10.80;9.70;;;;;;;8.60;100.00;101497.94;6146487;28;20226;-68
2024/02/21 06:22:16;;;;;;;10.13;9.13;;;;;;;8.63;100.00;101500.44;6144782;28;20235;-68
2024/02/21 06:25:37;;;;;;;9.77;8.87;;;;;;;8.70;100.00;101492.78;6102962;28;20227;-67
2024/02/21 06:28:59;;;;;;;8.70;8.00;;;;;;;8.65;100.00;101498.50;6136326;28;20234;-67
2024/02/21 06:32:20;;;;;;;7.33;6.67;;;;;;;8.59;100.00;101488.19;6139743;28;20231;-67
2024/02/21 06:35:45;;;;;;;8.03;7.23;;;;;;;8.60;100.00;101489.03;6140610;28;20230;-69
2024/02/21 06:39:07;;;;;;;6.67;6.00;;;;;;;8.59;100.00;101492.69;6143646;28;20262;-68
2024/02/21 06:42:29;;;;;;;6.23;5.63;;;;;;;8.58;100.00;101493.66;6143187;28;20525;-68
2024/02/21 06:45:51;;;;;;;7.07;6.30;;;;;;;8.58;100.00;101493.66;6144566;28;20235;-67
2024/02/21 06:49:15;;;;;;;6.90;6.30;;;;;;;8.55;100.00;101486.66;6146294;28;20326;-67
2024/02/21 06:52:38;;;;;;;5.43;4.87;;;;;;;8.57;100.00;101487.41;6142463;28;20361;-70
2024/02/21 06:55:59;;;;;;;5.80;5.23;;;;;;;8.61;100.00;101488.94;6145550;28;20755;-67
2024/02/21 06:59:20;;;;;;;5.13;4.63;;;;;;;8.59;100.00;101487.31;6137360;28;20675;-67
2024/02/21 07:02:40;;;;;;;5.27;4.77;;;;;;;8.61;100.00;101488.94;6140319;28;20857;-67
2024/02/21 07:06:02;;;;;;;4.23;3.93;;;;;;;8.62;100.00;101495.16;6144116;28;20232;-67
2024/02/21 07:09:24;;;;;;;5.13;4.63;;;;;;;8.63;100.00;101491.50;6149063;28;20262;-67
2024/02/21 07:12:45;;;;;;;5.30;4.80;;;;;;;8.69;100.00;101491.94;6148875;28;20222;-66
2024/02/21 07:16:07;;;;;;;5.70;5.20;;;;;;;8.70;100.00;101487.38;6145692;28;20227;-67
2024/02/21 07:19:27;;;;;;;6.83;6.23;;;;;;;8.70;100.00;101476.63;6149749;28;20231;-68
2024/02/21 07:22:48;;;;;;;7.17;6.47;;;;;;;8.77;100.00;101480.63;6120587;28;20491;-67
2024/02/21 07:26:10;;;;;;;7.07;6.40;;;;;;;8.71;100.00;101498.06;6146533;28;20255;-69
2024/02/21 07:29:31;;;;;;;6.33;5.73;;;;;;;8.72;100.00;101493.50;6151053;28;20604;-67
2024/02/21 07:32:52;;;;;;;7.00;6.40;;;;;;;8.77;100.00;101496.75;6133428;28;20632;-67
2024/02/21 07:36:13;;;;;;;6.23;5.63;;;;;;;8.80;100.00;101494.69;6150471;28;20230;-66
2024/02/21 07:39:37;;;;;;;7.60;6.90;;;;;;;8.84;100.00;101501.56;6157053;28;20227;-66
2024/02/21 07:42:59;;;;;;;6.80;5.80;;;;;;;8.91;100.00;101504.69;6155850;28;20238;-69
2024/02/21 07:46:20;;;;;;;6.50;4.23;;;;;;;8.83;100.00;101507.06;6154870;28;20234;-67
2024/02/21 07:49:42;;;;;;;5.80;5.30;;;;;;;8.84;100.00;101512.31;6152420;28;20238;-67
2024/02/21 07:53:04;;;;;;;5.93;5.43;;;;;;;8.80;100.00;101500.06;6145575;28;20509;-68
2024/02/21 07:56:28;;;;;;;6.47;5.93;;;;;;;8.83;100.00;101493.63;6155833;28;20262;-69
2024/02/21 07:59:51;;;;;;;5.30;4.80;;;;;;;8.83;100.00;101501.69;6148452;28;20235;-67
2024/02/21 08:03:12;;;;;;;4.90;4.50;;;;;;;8.86;100.00;101505.00;6152979;28;20242;-68
2024/02/21 08:06:33;;;;;;;6.00;5.33;;;;;;;8.90;100.00;101504.81;6153831;28;20222;-67
2024/02/21 08:09:53;;;;;;;6.80;6.10;;;;;;;9.00;100.00;101501.34;6149766;28;20308;-70
2024/02/21 08:13:14;;;;;;;4.60;4.20;;;;;;;9.07;100.00;101497.25;6148157;28;20226;-68
2024/02/21 08:16:37;;;;;;;4.83;4.43;;;;;;;9.11;100.00;101497.88;6144714;28;20230;-69
2024/02/21 08:19:58;;;;;;;7.63;3.97;;;;;;;9.05;100.00;101492.94;6147992;28;20326;-68
2024/02/21 08:23:19;;;;;;;4.77;4.00;;;;;;;9.18;100.00;101488.41;6144752;28;20231;-68
2024/02/21 08:26:41;;;;;;;10.03;4.93;;;;;;;9.14;100.00;101481.50;6152802;28;20522;-68
2024/02/21 08:30:02;;;;;;;8.87;3.63;;;;;;;9.13;100.00;101483.34;6151885;28;20317;-69
2024/02/21 08:33:25;;;;;;;9.70;3.37;;;;;;;9.05;100.00;101485.75;6151419;28;20230;-68
2024/02/21 08:36:46;;;;;;;4.57;4.00;;;;;;;9.16;100.00;101480.41;6148440;28;20234;-68
2024/02/21 08:40:09;;;;;;;11.00;4.00;;;;;;;9.11;100.00;101479.91;6151536;28;20321;-68
2024/02/21 08:43:30;;;;;;;5.50;4.30;;;;;;;8.91;100.00;101477.78;6154170;28;20369;-67
2024/02/21 08:46:51;;;;;;;10.63;5.13;;;;;;;9.02;100.00;101471.63;6156432;28;20231;-67
2024/02/21 08:50:14;;;;;;;6.70;3.80;;;;;;;9.16;100.00;101469.66;6148188;28;20238;-67
2024/02/21 08:53:35;;;;;;;7.73;4.17;;;;;;;9.27;100.00;101471.56;6143037;28;20239;-67
2024/02/21 08:56:56;;;;;;;7.27;4.33;;;;;;;9.23;100.00;101478.13;6135133;28;20227;-67
2024/02/21 09:00:18;;;;;;;8.50;3.60;;;;;;;9.30;100.00;101482.97;6147675;28;20227;-67
2024/02/21 09:03:39;;;;;;;5.03;3.97;;;;;;;9.16;100.00;101477.72;6144786;28;20234;-67
2024/02/21 09:07:01;;;;;;;9.43;3.63;;;;;;;8.93;100.00;101483.09;6144518;28;21025;-67
2024/02/21 09:10:22;;;;;;;7.67;4.43;;;;;;;9.00;100.00;101479.81;6144079;28;20600;-67
2024/02/21 09:13:43;;;;;;;8.77;4.33;;;;;;;9.02;100.00;101475.19;6142047;28;20259;-67
2024/02/21 09:17:04;;;;;;;4.40;3.10;;;;;;;9.18;100.00;101472.25;6144979;28;20592;-68
2024/02/21 09:20:25;;;;;;;6.63;3.40;;;;;;;9.11;100.00;101473.66;6150996;28;20853;-67
2024/02/21 09:23:47;;;;;;;7.43;4.27;;;;;;;8.93;100.00;101475.03;6147745;28;20235;-67
2024/02/21 09:27:09;;;;;;;7.53;3.97;;;;;;;8.94;100.00;101468.66;6148890;28;20781;-68
2024/02/21 09:30:30;;;;;;;6.40;3.63;;;;;;;8.90;100.00;101462.66;6137788;28;20730;-67
2024/02/21 09:33:51;;;;;;;9.10;4.47;;;;;;;9.02;100.00;101458.19;6149826;28;20653;-68
2024/02/21 09:37:12;;;;;;;3.70;2.50;;;;;;;8.95;100.00;101452.41;6143174;28;20231;-67
2024/02/21 09:40:38;;;;;;;6.73;2.87;;;;;;;8.78;100.00;101453.63;6150964;28;20583;-66
2024/02/21 09:44:00;;;;;;;3.43;2.63;;;;;;;8.82;100.00;101451.59;6152371;28;20329;-67
2024/02/21 09:47:25;;;;;;;6.80;3.70;;;;;;;8.94;100.00;101444.44;6144210;28;20230;-67
2024/02/21 09:50:48;;;;;;;4.03;3.10;;;;;;;8.96;100.00;101446.06;6146608;28;23024;-66
2024/02/21 09:54:09;;;;;;;3.90;2.63;;;;;;;8.97;100.00;101442.38;6150449;28;20322;-67
2024/02/21 09:57:31;;;;;;;4.83;2.50;;;;;;;8.85;100.00;101433.41;6150953;28;20231;-68
2024/02/21 10:00:52;;;;;;;3.67;2.40;;;;;;;8.99;100.00;101443.13;6154087;28;20238;-67
2024/02/21 10:04:13;;;;;;;4.53;2.37;;;;;;;8.85;100.00;101437.91;6146124;28;20241;-67
2024/02/21 10:07:34;;;;;;;3.50;2.67;;;;;;;8.97;100.00;101441.56;6144414;28;20243;-68
2024/02/21 10:10:59;;;;;;;4.73;3.73;;;;;;;8.85;100.00;101437.91;6147049;28;20234;-67
2024/02/21 10:14:21;;;;;;;5.00;4.40;;;;;;;8.91;100.00;101436.63;6147334;28;20514;-67
2024/02/21 10:17:42;;;;;;;5.83;5.10;;;;;;;9.01;100.00;101435.81;6145309;28;20235;-68
2024/02/21 10:21:04;;;;;;;7.07;6.17;;;;;;;9.04;100.00;101437.44;6143535;28;20234;-68
2024/02/21 10:24:27;;;;;;;7.17;6.47;;;;;;;9.04;100.00;101427.53;6151929;28;20234;-69
2024/02/21 10:27:51;;;;;;;14.17;9.10;;;;;;;9.07;100.00;101442.59;6125726;28;20234;-69
2024/02/21 10:31:22;;;;;;;8.23;7.47;;;;;;;9.05;100.00;101433.78;6140533;28;20242;-69
2024/02/21 10:34:43;;;;;;;12.80;9.50;;;;;;;9.13;100.00;101434.06;6150989;28;20767;-68
2024/02/21 10:38:05;;;;;;;12.27;11.00;;;;;;;9.21;100.00;101437.03;6150645;28;20227;-68
2024/02/21 10:41:27;;;;;;;16.83;10.50;;;;;;;9.26;100.00;101430.34;6146223;28;20235;-68
2024/02/21 10:44:52;;;;;;;10.60;9.40;;;;;;;9.25;100.00;101417.00;6144442;28;20505;-68
2024/02/21 10:48:15;;;;;;;15.67;11.87;;;;;;;9.26;100.00;101422.28;6151865;28;20393;-67
2024/02/21 10:51:39;;;;;;;16.23;11.77;;;;;;;9.33;100.00;101411.91;6144499;28;20242;-67
2024/02/21 10:55:07;;;;;;;20.97;12.23;;;;;;;9.34;100.00;101413.66;6147374;28;20261;-68
2024/02/21 10:58:30;;;;;;;15.67;12.57;;;;;;;9.23;100.00;101411.75;6148000;28;20254;-67
2024/02/21 11:01:52;;;;;;;13.83;12.13;;;;;;;9.31;100.00;101389.66;6131493;28;20238;-66
2024/02/21 11:05:16;;;;;;;14.60;12.70;;;;;;;9.23;100.00;101392.06;6132364;28;20238;-67
2024/02/21 11:08:36;;;;;;;16.67;14.23;;;;;;;9.29;100.00;101394.28;6138523;28;20254;-67
2024/02/21 11:11:58;;;;;;;13.90;11.20;;;;;;;9.27;100.00;101396.22;6149471;28;20234;-67
2024/02/21 11:15:19;;;;;;;13.03;10.53;;;;;;;9.25;100.00;101390.13;6143073;28;20239;-70
2024/02/21 11:18:40;;;;;;;13.33;10.33;;;;;;;9.26;100.00;101395.38;6154261;28;22048;-69
2024/02/21 11:22:04;;;;;;;13.40;12.10;;;;;;;9.26;100.00;101373.84;6145291;28;20342;-67
2024/02/21 11:25:25;;;;;;;14.20;9.57;;;;;;;9.25;100.00;101377.53;6150601;28;20314;-67
2024/02/21 11:28:57;;;;;;;12.90;10.10;;;;;;;9.31;100.00;101378.88;6154437;28;20230;-68
2024/02/21 11:32:20;;;;;;;13.50;11.57;;;;;;;9.26;100.00;101376.53;6143089;28;20317;-67
2024/02/21 11:35:41;;;;;;;15.80;9.43;;;;;;;9.27;100.00;101372.03;6152239;28;20257;-68
2024/02/21 11:39:06;;;;;;;11.20;9.90;;;;;;;9.28;100.00;101363.00;6152733;28;20235;-68
2024/02/21 11:42:27;;;;;;;11.47;9.43;;;;;;;9.35;100.00;101364.22;6150781;28;20230;-68
2024/02/21 11:45:48;;;;;;;11.90;9.30;;;;;;;9.26;100.00;101359.56;6151291;28;20354;-67
2024/02/21 11:49:09;;;;;;;13.47;9.13;;;;;;;9.31;100.00;101350.16;6150994;28;20246;-67
2024/02/21 11:52:30;;;;;;;10.00;6.77;;;;;;;9.25;100.00;101349.75;6125844;28;20239;-66
2024/02/21 11:55:52;;;;;;;12.70;8.70;;;;;;;9.24;100.00;101348.91;6144808;28;20613;-67
2024/02/21 11:59:16;;;;;;;11.97;8.60;;;;;;;9.33;100.00;101340.13;6153969;28;20234;-68
2024/02/21 12:02:37;;;;;;;11.43;7.67;;;;;;;9.29;100.00;101319.81;6145260;28;20254;-68
2024/02/21 12:05:59;;;;;;;8.70;7.37;;;;;;;9.24;100.00;101324.69;6143037;28;20243;-68
2024/02/21 12:09:20;;;;;;;15.53;9.73;;;;;;;9.26;100.00;101322.72;6157083;28;20231;-67
2024/02/21 12:12:42;;;;;;;8.50;7.70;;;;;;;9.30;100.00;101310.78;6141087;28;20254;-65
2024/02/21 12:16:03;;;;;;;9.60;7.67;;;;;;;9.28;100.00;101318.09;6148936;28;20254;-67
2024/02/21 12:19:24;;;;;;;10.97;8.03;;;;;;;9.24;100.00;101318.47;6150261;28;20227;-68
2024/02/21 12:22:45;;;;;;;12.23;8.27;;;;;;;9.23;100.00;101309.53;6144544;28;20299;-66
2024/02/21 12:26:07;;;;;;;12.30;8.37;;;;;;;9.28;100.00;101309.19;6145319;28;20358;-67
2024/02/21 12:29:29;;;;;;;9.27;6.93;;;;;;;9.29;100.00;101305.50;6153965;28;20234;-67
2024/02/21 12:32:50;;;;;;;11.17;9.20;;;;;;;9.22;100.00;101312.34;6117511;28;20242;-69
2024/02/21 12:36:11;;;;;;;9.60;7.97;;;;;;;9.17;100.00;101310.00;6133925;28;20239;-68
2024/02/21 12:39:32;;;;;;;12.40;8.03;;;;;;;9.17;100.00;101319.91;6144385;28;20258;-68
2024/02/21 12:42:53;;;;;;;10.37;9.07;;;;;;;9.04;100.00;101311.91;6152524;28;20238;-66
2024/02/21 12:46:16;;;;;;;8.90;8.10;;;;;;;9.12;100.00;101298.72;6151145;28;20314;-67
2024/02/21 12:49:37;;;;;;;10.17;8.60;;;;;;;9.10;100.00;101295.28;6154050;28;20737;-66
2024/02/21 12:52:58;;;;;;;13.43;10.30;;;;;;;9.04;100.00;101293.06;6139388;28;20366;-66
2024/02/21 12:56:19;;;;;;;13.37;10.57;;;;;;;9.00;100.00;101294.28;6156276;28;20317;-69
2024/02/21 12:59:40;;;;;;;10.57;9.57;;;;;;;9.06;100.00;101276.81;6152360;28;20234;-67
2024/02/21 13:03:03;;;;;;;14.00;11.33;;;;;;;9.05;100.00;101275.13;6142090;28;20235;-66
2024/02/21 13:06:25;;;;;;;11.33;8.60;;;;;;;9.14;100.00;101272.56;6146062;28;20243;-68
2024/02/21 13:09:46;;;;;;;9.97;8.77;;;;;;;9.22;100.00;101274.69;6146059;28;20234;-68
2024/02/21 13:13:07;;;;;;;12.60;10.10;;;;;;;9.35;100.00;101265.53;6143828;28;20290;-69
2024/02/21 13:16:28;;;;;;;14.77;9.97;;;;;;;9.35;100.00;101264.69;6139382;28;20790;-68
2024/02/21 13:19:50;;;;;;;15.63;12.97;;;;;;;9.27;100.00;101257.22;6133022;28;20242;-68
2024/02/21 13:23:11;;;;;;;12.63;9.00;;;;;;;9.54;100.00;101243.44;6150024;28;20250;-68
2024/02/21 13:26:32;;;;;;;10.43;8.67;;;;;;;9.52;100.00;101235.50;6147663;28;20238;-68
2024/02/21 13:29:53;;;;;;;11.40;9.57;;;;;;;9.53;100.00;101239.88;6148551;28;20242;-68
2024/02/21 13:33:14;;;;;;;11.70;9.10;;;;;;;9.53;100.00;101222.91;6141235;28;20231;-68
2024/02/21 13:36:37;;;;;;;10.87;9.77;;;;;;;9.49;100.00;101216.88;6144533;28;20226;-68
2024/02/21 13:39:58;;;;;;;11.97;8.23;;;;;;;9.55;100.00;101196.72;6143856;28;20231;-68
2024/02/21 13:43:19;;;;;;;11.03;9.57;;;;;;;9.62;100.00;101188.03;6148660;28;20234;-68
2024/02/21 13:46:40;;;;;;;12.83;9.40;;;;;;;9.58;100.00;101185.69;6149826;28;20238;-67
2024/02/21 13:50:01;;;;;;;8.23;7.20;;;;;;;9.57;100.00;101174.06;6149168;28;20736;-67
2024/02/21 13:53:23;;;;;;;9.97;8.40;;;;;;;9.64;100.00;101164.53;6142110;28;20243;-66
2024/02/21 13:56:44;;;;;;;14.23;9.07;;;;;;;9.73;100.00;101152.16;6154237;28;20329;-66
2024/02/21 14:00:10;;;;;;;12.10;8.97;;;;;;;9.92;100.00;101133.53;6146680;28;20611;-66
2024/02/21 14:03:33;;;;;;;9.93;8.83;;;;;;;9.95;100.00;101127.06;6142861;28;20254;-66
2024/02/21 14:06:54;;;;;;;11.20;9.63;;;;;;;9.85;100.00;101118.00;6148048;28;20235;-68
2024/02/21 14:10:17;;;;;;;12.23;7.73;;;;;;;9.97;100.00;101108.94;6142777;28;20559;-66
2024/02/21 14:13:39;;;;;;;12.80;8.33;;;;;;;10.17;100.00;101100.06;6147100;28;20668;-68
2024/02/21 14:17:00;;;;;;;13.57;8.57;;;;;;;10.08;100.00;101087.31;6144979;28;20482;-66
2024/02/21 14:20:21;;;;;;;11.03;8.87;;;;;;;10.07;100.00;101072.16;6147945;28;20231;-69
2024/02/21 14:23:43;;;;;;;9.00;7.67;;;;;;;10.19;100.00;101058.56;6144217;28;20603;-66
2024/02/21 14:27:05;;;;;;;8.70;7.30;;;;;;;10.39;100.00;101052.31;6146612;28;20222;-68
2024/02/21 14:30:26;;;;;;;13.17;9.17;;;;;;;10.34;100.00;101046.50;6149786;28;20258;-68
2024/02/21 14:33:47;;;;;;;8.47;7.13;;;;;;;10.69;100.00;101039.88;6144773;28;20564;-68
2024/02/21 14:37:08;;;;;;;8.40;6.77;;;;;;;10.59;100.00;101025.50;6141416;28;20251;-68
2024/02/21 14:40:29;;;;;;;9.50;6.87;;;;;;;10.42;100.00;101022.44;6125539;28;20772;-67
2024/02/21 14:43:52;;;;;;;9.53;6.97;;;;;;;10.46;100.00;101006.84;6149490;28;20230;-67
2024/02/21 14:47:13;;;;;;;8.50;7.80;;;;;;;10.47;100.00;101007.69;6139826;28;20242;-69
2024/02/21 14:50:34;;;;;;;9.40;8.27;;;;;;;10.35;100.00;101005.06;6156300;28;20253;-68
2024/02/21 14:53:55;;;;;;;10.53;9.40;;;;;;;10.23;100.00;101006.13;6151779;28;20564;-65
2024/02/21 14:57:16;;;;;;;15.10;9.03;;;;;;;10.21;100.00;100996.44;6151863;28;20238;-67
2024/02/21 15:00:38;;;;;;;9.37;8.47;;;;;;;10.16;100.00;100991.47;6153215;28;20242;-65
2024/02/21 15:04:02;;;;;;;9.50;7.90;;;;;;;10.08;100.00;100988.53;6151339;28;20238;-67
2024/02/21 15:07:25;;;;;;;8.37;7.67;;;;;;;10.13;100.00;100978.25;6140117;28;20231;-68
2024/02/21 15:10:45;;;;;;;8.20;7.47;;;;;;;10.08;100.00;100966.13;6141720;28;20239;-67
2024/02/21 15:14:06;;;;;;;9.10;7.83;;;;;;;10.12;100.00;100962.22;6155241;28;20626;-66
2024/02/21 15:17:28;;;;;;;6.97;6.47;;;;;;;10.07;100.00;100953.66;6142034;28;20329;-67
2024/02/21 15:20:49;;;;;;;9.20;6.67;;;;;;;10.02;100.00;100942.41;6144428;28;20712;-66
2024/02/21 15:24:10;;;;;;;7.60;6.17;;;;;;;10.05;100.00;100942.16;6149588;28;20421;-67
2024/02/21 15:27:31;;;;;;;7.30;6.20;;;;;;;10.01;100.00;100932.63;6145555;28;20542;-67
2024/02/21 15:30:53;;;;;;;7.23;5.87;;;;;;;10.02;100.00;100924.41;6148855;28;20266;-66
2024/02/21 15:34:16;;;;;;;7.10;5.63;;;;;;;9.97;100.00;100915.88;6149406;28;20235;-67
2024/02/21 15:37:37;;;;;;;5.83;5.20;;;;;;;9.92;100.00;100901.97;6136577;28;20242;-66